CheckWX is a tool to help pilots better visualize weather data.  It is not intended as a substitute for an official pre-flight weather briefing.

14:16:14 UTC

KSZT METAR
Sandpoint Airport
Sandpoint, Idaho, USA
Current

21 mins ago

KSZT 221355Z AUTO 00000KT 10SM CLR 02/01 A3023 RMK AO2
Observed
Apr-22 @ 13:55 UTC
Visibility
10 SM
Flight Rules
VFR
Cloud Levels
  • Clear skies
Temperature
C / 36°F
Dewpoint
C / 34°F
Humidity
93%
Altimeter
30.23" Hg
Pressure
1023.72 hPa
Previous

41 mins ago

KSZT 221335Z AUTO 00000KT 10SM CLR 01/01 A3023 RMK AO2
Observed
Apr-22 @ 13:35 UTC
Visibility
10 SM
Flight Rules
VFR
Cloud Levels
  • Clear skies
Temperature
C / 34°F
Dewpoint
C / 34°F
Humidity
100%
Altimeter
30.23" Hg
Pressure
1023.72 hPa
Previous

1 hour ago

KSZT 221315Z AUTO 00000KT 10SM CLR 00/00 A3023 RMK AO2
Observed
Apr-22 @ 13:15 UTC
Visibility
10 SM
Flight Rules
VFR
Cloud Levels
  • Clear skies
Temperature
C / 32°F
Dewpoint
C / 32°F
Humidity
100%
Altimeter
30.23" Hg
Pressure
1023.72 hPa